Time;durP1;ratioP1;P1;durP2;ratioP2;P2;SDS_P1;SDS_P2;PMS_P1;PMS_P2;Temp;Humidity;BMP_temperature;BMP_pressure;BME280_temperature;BME280_humidity;BME280_pressure;Samples;Min_cycle;Max_cycle;Signal;HPM_P1;HPM_P2
2022/01/11 00:00:58;;;;;;;;;;;;;;;;;;5053167;28;19943;-82
2022/01/11 00:03:23;;;;;;;;;;;;;;;;;;5051764;28;20345;-82
2022/01/11 00:06:02;;;;;;;;;;;;;;;;;;5054764;28;19923;-81
2022/01/11 00:08:32;;;;;;;;;;;;;;;;;;5052539;28;19952;-80
2022/01/11 00:11:03;;;;;;;;;;;;;;;;;;5055137;28;19916;-81
2022/01/11 00:13:31;;;;;;;;;;;;;;;;;;5055643;28;19991;-81
2022/01/11 00:15:57;;;;;;;;;;;;;;;;;;5054295;28;19917;-81
2022/01/11 00:18:22;;;;;;;;;;;;;;;;;;5055200;28;20003;-81
2022/01/11 00:20:47;;;;;;;;;;;;;;;;;;5055123;28;19944;-80
2022/01/11 00:25:39;;;;;;;;;;;;;;;;;;5038851;28;20257;-81
2022/01/11 00:28:05;;;;;;;;;;;;;;;;;;5055293;28;20353;-81
2022/01/11 00:30:33;;;;;;;;;;;;;;;;;;5054999;28;19927;-81
2022/01/11 00:33:01;;;;;;;;;;;;;;;;;;5055194;28;19927;-81
2022/01/11 00:35:40;;;;;;;;;;;;;;;;;;5053646;28;19939;-78
2022/01/11 00:38:05;;;;;;;;;;;;;;;;;;5054570;28;20369;-81
2022/01/11 00:40:30;;;;;;;;;;;;;;;;;;5055069;28;20015;-80
2022/01/11 00:42:59;;;;;;;;;;;;;;;;;;5051549;28;20362;-81
2022/01/11 00:45:25;;;;;;;;;;;;;;;;;;5042328;28;19912;-81
2022/01/11 00:47:52;;;;;;;;;;;;;;;;;;5054626;28;19921;-80
2022/01/11 00:50:18;;;;;;;;;;;;;;;;;;5054775;28;20302;-80
2022/01/11 00:52:46;;;;;;;;;;;;;;;;;;5054097;28;19963;-81
2022/01/11 00:55:11;;;;;;;;;;;;;;;;;;5054568;28;19920;-80
2022/01/11 00:57:36;;;;;;;;;;;;;;;;;;5054441;28;19913;-80
2022/01/11 01:00:08;;;;;;;;;;;;;;;;;;5054732;28;19917;-80
2022/01/11 01:02:33;;;;;;;;;;;;;;;;;;5054771;28;19917;-80
2022/01/11 01:04:58;;;;;;;;;;;;;;;;;;5036529;28;19928;-80
2022/01/11 01:07:24;;;;;;;;;;;;;;;;;;5054767;28;20313;-81
2022/01/11 01:10:00;;;;;;;;;;;;;;;;;;5054553;28;19913;-79
2022/01/11 01:12:27;;;;;;;;;;;;;;;;;;5054728;28;19913;-80
2022/01/11 01:14:52;;;;;;;;;;;;;;;;;;5054596;28;20222;-82
2022/01/11 01:17:18;;;;;;;;;;;;;;;;;;5053353;28;19936;-80
2022/01/11 01:19:43;;;;;;;;;;;;;;;;;;5047407;28;19921;-80
2022/01/11 01:22:08;;;;;;;;;;;;;;;;;;5045771;28;20349;-80
2022/01/11 01:24:35;;;;;;;;;;;;;;;;;;5054777;28;19913;-80
2022/01/11 01:27:01;;;;;;;;;;;;;;;;;;5054405;28;19921;-80
2022/01/11 01:29:26;;;;;;;;;;;;;;;;;;5054535;28;20047;-80
2022/01/11 01:31:58;;;;;;;;;;;;;;;;;;5059453;28;19913;-81
2022/01/11 01:34:24;;;;;;;;;;;;;;;;;;5055767;28;20012;-81
2022/01/11 01:36:50;;;;;;;;;;;;;;;;;;5060420;28;19956;-80
2022/01/11 01:39:15;;;;;;;;;;;;;;;;;;5058657;28;19917;-80
2022/01/11 01:41:44;;;;;;;;;;;;;;;;;;5060293;28;19921;-80
2022/01/11 01:44:09;;;;;;;;;;;;;;;;;;5060044;28;19919;-81
2022/01/11 01:46:34;;;;;;;;;;;;;;;;;;5060397;28;19916;-81
2022/01/11 01:49:01;;;;;;;;;;;;;;;;;;5060240;28;20003;-80
2022/01/11 01:51:27;;;;;;;;;;;;;;;;;;5061842;28;19917;-81
2022/01/11 01:53:52;;;;;;;;;;;;;;;;;;5062302;28;19924;-80
2022/01/11 01:56:18;;;;;;;;;;;;;;;;;;5063684;28;19993;-80
2022/01/11 01:58:43;;;;;;;;;;;;;;;;;;5057678;28;19959;-80
2022/01/11 02:01:10;;;;;;;;;;;;;;;;;;5057665;28;19912;-81
2022/01/11 02:03:39;;;;;;;;;;;;;;;;;;5053689;28;20011;-80
2022/01/11 02:06:08;;;;;;;;;;;;;;;;;;5045347;28;20346;-80
2022/01/11 02:08:33;;;;;;;;;;;;;;;;;;5057433;28;20231;-80
2022/01/11 02:10:58;;;;;;;;;;;;;;;;;;5036948;28;19920;-79
2022/01/11 02:13:23;;;;;;;;;;;;;;;;;;5045559;28;20350;-79
2022/01/11 02:15:50;;;;;;;;;;;;;;;;;;5039787;28;20263;-81
2022/01/11 02:18:21;;;;;;;;;;;;;;;;;;5057653;28;19970;-81
2022/01/11 02:20:47;;;;;;;;;;;;;;;;;;5057732;28;20346;-81
2022/01/11 02:23:12;;;;;;;;;;;;;;;;;;5053517;28;19971;-81
2022/01/11 02:25:40;;;;;;;;;;;;;;;;;;5056804;28;19974;-80
2022/01/11 02:28:06;;;;;;;;;;;;;;;;;;5057268;28;19917;-80
2022/01/11 02:30:33;;;;;;;;;;;;;;;;;;5057265;28;19931;-80
2022/01/11 02:32:59;;;;;;;;;;;;;;;;;;5057285;28;19948;-82
2022/01/11 02:35:24;;;;;;;;;;;;;;;;;;5057254;28;19952;-81
2022/01/11 02:37:49;;;;;;;;;;;;;;;;;;5056908;28;19928;-81
2022/01/11 02:40:17;;;;;;;;;;;;;;;;;;5057556;28;19974;-81
2022/01/11 02:42:42;;;;;;;;;;;;;;;;;;5056430;28;19944;-81
2022/01/11 02:45:11;;;;;;;;;;;;;;;;;;5057172;28;20361;-80
2022/01/11 02:47:36;;;;;;;;;;;;;;;;;;5057795;28;19955;-80
2022/01/11 02:50:02;;;;;;;;;;;;;;;;;;5057297;28;19912;-80
2022/01/11 02:52:27;;;;;;;;;;;;;;;;;;5052190;28;19948;-81
2022/01/11 02:54:52;;;;;;;;;;;;;;;;;;5057338;28;20318;-80
2022/01/11 02:57:19;;;;;;;;;;;;;;;;;;5048998;28;20366;-81
2022/01/11 02:59:46;;;;;;;;;;;;;;;;;;5036140;28;20011;-81
2022/01/11 03:02:13;;;;;;;;;;;;;;;;;;5053485;28;19970;-80
2022/01/11 03:04:39;;;;;;;;;;;;;;;;;;5056722;28;19913;-80
2022/01/11 03:07:04;;;;;;;;;;;;;;;;;;5055542;28;20364;-81
2022/01/11 03:09:37;;;;;;;;;;;;;;;;;;5055911;28;19970;-81
2022/01/11 03:12:05;;;;;;;;;;;;;;;;;;5055687;28;19943;-81
2022/01/11 03:14:31;;;;;;;;;;;;;;;;;;5056507;28;19925;-80
2022/01/11 03:16:56;;;;;;;;;;;;;;;;;;5056293;28;20310;-80
2022/01/11 03:19:22;;;;;;;;;;;;;;;;;;5056305;28;20341;-81
2022/01/11 03:21:47;;;;;;;;;;;;;;;;;;5056281;28;19916;-81
2022/01/11 03:24:12;;;;;;;;;;;;;;;;;;5056337;28;19973;-81
2022/01/11 03:26:38;;;;;;;;;;;;;;;;;;5056413;28;19966;-81
2022/01/11 03:29:03;;;;;;;;;;;;;;;;;;5054839;28;19977;-78
2022/01/11 03:31:28;;;;;;;;;;;;;;;;;;5056407;28;19916;-79
2022/01/11 03:33:55;;;;;;;;;;;;;;;;;;5056122;28;20268;-79
2022/01/11 03:36:21;;;;;;;;;;;;;;;;;;5055984;28;19920;-81
2022/01/11 03:38:48;;;;;;;;;;;;;;;;;;5056187;28;19913;-80
2022/01/11 03:41:14;;;;;;;;;;;;;;;;;;5056438;28;19924;-80
2022/01/11 03:43:39;;;;;;;;;;;;;;;;;;5055679;28;19920;-79
2022/01/11 03:46:04;;;;;;;;;;;;;;;;;;5056060;28;20345;-80
2022/01/11 03:48:30;;;;;;;;;;;;;;;;;;5055539;28;19917;-80
2022/01/11 03:50:56;;;;;;;;;;;;;;;;;;5055797;28;20420;-80
2022/01/11 03:53:25;;;;;;;;;;;;;;;;;;5055481;28;20357;-80
2022/01/11 03:58:16;;;;;;;;;;;;;;;;;;5055931;28;20253;-80
2022/01/11 04:00:42;;;;;;;;;;;;;;;;;;5054909;28;19931;-78
2022/01/11 04:03:07;;;;;;;;;;;;;;;;;;5055799;28;19921;-79
2022/01/11 04:05:32;;;;;;;;;;;;;;;;;;5055486;28;19917;-79
2022/01/11 04:07:57;;;;;;;;;;;;;;;;;;5055361;28;19916;-79
2022/01/11 04:10:25;;;;;;;;;;;;;;;;;;5055364;28;20257;-79
2022/01/11 04:12:52;;;;;;;;;;;;;;;;;;5050697;28;20868;-79
2022/01/11 04:15:17;;;;;;;;;;;;;;;;;;5054948;28;20203;-79
2022/01/11 04:17:42;;;;;;;;;;;;;;;;;;5055195;28;19923;-80
2022/01/11 04:20:08;;;;;;;;;;;;;;;;;;5055289;28;19935;-80
2022/01/11 04:22:33;;;;;;;;;;;;;;;;;;5054594;28;19929;-80
2022/01/11 04:24:58;;;;;;;;;;;;;;;;;;5054447;28;19970;-80
2022/01/11 04:27:24;;;;;;;;;;;;;;;;;;5036991;28;20317;-80
2022/01/11 04:29:49;;;;;;;;;;;;;;;;;;5055129;28;19935;-79
2022/01/11 04:32:14;;;;;;;;;;;;;;;;;;5055347;28;19917;-79
2022/01/11 04:34:39;;;;;;;;;;;;;;;;;;5055011;28;19917;-79
2022/01/11 04:37:07;;;;;;;;;;;;;;;;;;5054948;28;19916;-79
2022/01/11 04:39:34;;;;;;;;;;;;;;;;;;5055359;28;19979;-79
2022/01/11 04:42:00;;;;;;;;;;;;;;;;;;5053389;28;19971;-79
2022/01/11 04:44:25;;;;;;;;;;;;;;;;;;5053808;28;20350;-79
2022/01/11 04:46:50;;;;;;;;;;;;;;;;;;5054695;28;20293;-79
2022/01/11 04:49:15;;;;;;;;;;;;;;;;;;5054843;28;20331;-79
2022/01/11 04:51:42;;;;;;;;;;;;;;;;;;5053638;28;19920;-79
2022/01/11 04:54:08;;;;;;;;;;;;;;;;;;5054374;28;19917;-79
2022/01/11 04:56:33;;;;;;;;;;;;;;;;;;5054795;28;20285;-79
2022/01/11 04:58:58;;;;;;;;;;;;;;;;;;5054610;28;19917;-79
2022/01/11 05:01:23;;;;;;;;;;;;;;;;;;5051158;28;19917;-79
2022/01/11 05:03:51;;;;;;;;;;;;;;;;;;5047320;28;19927;-79
2022/01/11 05:06:16;;;;;;;;;;;;;;;;;;5053875;28;20361;-79
2022/01/11 05:08:44;;;;;;;;;;;;;;;;;;5053379;28;19927;-79
2022/01/11 05:11:09;;;;;;;;;;;;;;;;;;5054221;28;20262;-79
2022/01/11 05:13:34;;;;;;;;;;;;;;;;;;5054130;28;19917;-78
2022/01/11 05:16:02;;;;;;;;;;;;;;;;;;5054147;28;19963;-78
2022/01/11 05:18:27;;;;;;;;;;;;;;;;;;5053299;28;19966;-79
2022/01/11 05:20:52;;;;;;;;;;;;;;;;;;5054088;28;20003;-79
2022/01/11 05:23:17;;;;;;;;;;;;;;;;;;5046659;28;20259;-79
2022/01/11 05:25:43;;;;;;;;;;;;;;;;;;5045122;28;19927;-79
2022/01/11 05:28:08;;;;;;;;;;;;;;;;;;5054620;28;20004;-77
2022/01/11 05:30:36;;;;;;;;;;;;;;;;;;5039891;28;20212;-77
2022/01/11 05:33:01;;;;;;;;;;;;;;;;;;5054159;28;19944;-77
2022/01/11 05:35:26;;;;;;;;;;;;;;;;;;5058087;28;20330;-77
2022/01/11 05:37:54;;;;;;;;;;;;;;;;;;5057545;28;19925;-76
2022/01/11 05:40:19;;;;;;;;;;;;;;;;;;5058377;28;19919;-77
2022/01/11 05:42:48;;;;;;;;;;;;;;;;;;5057685;28;19936;-75
2022/01/11 05:45:14;;;;;;;;;;;;;;;;;;5057473;28;19929;-80
2022/01/11 05:47:39;;;;;;;;;;;;;;;;;;5057107;28;19994;-78
2022/01/11 05:50:05;;;;;;;;;;;;;;;;;;5057559;28;20380;-78
2022/01/11 05:52:30;;;;;;;;;;;;;;;;;;5060666;28;19917;-79
2022/01/11 05:54:55;;;;;;;;;;;;;;;;;;5058199;28;19924;-79
2022/01/11 05:57:20;;;;;;;;;;;;;;;;;;5057829;28;19991;-80
2022/01/11 05:59:46;;;;;;;;;;;;;;;;;;5056764;28;20369;-78
2022/01/11 06:02:11;;;;;;;;;;;;;;;;;;5057963;28;19947;-77
2022/01/11 06:04:36;;;;;;;;;;;;;;;;;;5056977;28;19913;-77
2022/01/11 06:07:02;;;;;;;;;;;;;;;;;;5057042;28;19919;-77
2022/01/11 06:09:28;;;;;;;;;;;;;;;;;;5057543;28;19920;-77
2022/01/11 06:11:53;;;;;;;;;;;;;;;;;;5055732;28;19979;-77
2022/01/11 06:14:19;;;;;;;;;;;;;;;;;;5056589;28;19976;-77
2022/01/11 06:16:44;;;;;;;;;;;;;;;;;;5057816;28;20288;-77
2022/01/11 06:19:09;;;;;;;;;;;;;;;;;;5057340;28;19921;-77
2022/01/11 06:21:34;;;;;;;;;;;;;;;;;;5057943;28;19970;-77
2022/01/11 06:23:59;;;;;;;;;;;;;;;;;;5057257;28;19928;-77
2022/01/11 06:26:25;;;;;;;;;;;;;;;;;;5056305;28;19966;-77
2022/01/11 06:28:50;;;;;;;;;;;;;;;;;;5057289;28;19921;-76
2022/01/11 06:31:15;;;;;;;;;;;;;;;;;;5057565;28;19967;-76
2022/01/11 06:33:40;;;;;;;;;;;;;;;;;;5057154;28;19932;-76
2022/01/11 06:36:11;;;;;;;;;;;;;;;;;;5057108;28;20039;-79
2022/01/11 06:38:37;;;;;;;;;;;;;;;;;;5057128;28;19946;-78
2022/01/11 06:41:02;;;;;;;;;;;;;;;;;;5055637;28;19927;-79
2022/01/11 06:43:29;;;;;;;;;;;;;;;;;;5057138;28;19917;-78
2022/01/11 06:45:55;;;;;;;;;;;;;;;;;;5056835;28;19913;-78
2022/01/11 06:48:20;;;;;;;;;;;;;;;;;;5057036;28;20368;-79
2022/01/11 06:50:46;;;;;;;;;;;;;;;;;;5056895;28;19917;-79
2022/01/11 06:53:11;;;;;;;;;;;;;;;;;;5056866;28;19974;-76
2022/01/11 06:55:39;;;;;;;;;;;;;;;;;;5056066;28;19924;-76
2022/01/11 06:58:07;;;;;;;;;;;;;;;;;;5056397;28;19920;-76
2022/01/11 07:00:32;;;;;;;;;;;;;;;;;;5055355;28;19986;-76
2022/01/11 07:02:58;;;;;;;;;;;;;;;;;;5056183;28;20353;-76
2022/01/11 07:05:23;;;;;;;;;;;;;;;;;;5056889;28;19932;-77
2022/01/11 07:07:48;;;;;;;;;;;;;;;;;;5056719;28;19917;-77
2022/01/11 07:10:13;;;;;;;;;;;;;;;;;;5057112;28;19917;-77
2022/01/11 07:12:39;;;;;;;;;;;;;;;;;;5059443;28;19928;-77
2022/01/11 07:15:04;;;;;;;;;;;;;;;;;;5062395;28;19917;-77
2022/01/11 07:17:29;;;;;;;;;;;;;;;;;;5060792;28;19928;-77
2022/01/11 07:19:55;;;;;;;;;;;;;;;;;;5056271;28;19995;-76
2022/01/11 07:22:20;;;;;;;;;;;;;;;;;;5055176;28;20401;-77
2022/01/11 07:24:45;;;;;;;;;;;;;;;;;;5055062;28;19924;-77
2022/01/11 07:27:10;;;;;;;;;;;;;;;;;;5055828;28;20003;-77
2022/01/11 07:29:36;;;;;;;;;;;;;;;;;;5055926;28;20342;-77
2022/01/11 07:32:01;;;;;;;;;;;;;;;;;;5070624;28;19916;-77
2022/01/11 07:34:26;;;;;;;;;;;;;;;;;;5076623;28;19948;-77
2022/01/11 07:36:52;;;;;;;;;;;;;;;;;;5075688;28;19912;-77
2022/01/11 07:39:17;;;;;;;;;;;;;;;;;;5050148;28;19917;-77
2022/01/11 07:41:42;;;;;;;;;;;;;;;;;;5036423;28;19924;-77
2022/01/11 07:44:08;;;;;;;;;;;;;;;;;;5047863;28;19944;-77
2022/01/11 07:46:33;;;;;;;;;;;;;;;;;;5071996;28;19912;-77
2022/01/11 07:49:02;;;;;;;;;;;;;;;;;;5054985;28;20338;-77
2022/01/11 07:51:28;;;;;;;;;;;;;;;;;;5056372;28;19913;-77
2022/01/11 07:53:53;;;;;;;;;;;;;;;;;;5054002;28;20006;-78
2022/01/11 07:56:18;;;;;;;;;;;;;;;;;;5037657;28;19917;-77
2022/01/11 07:58:44;;;;;;;;;;;;;;;;;;5055545;28;19921;-78
2022/01/11 08:01:09;;;;;;;;;;;;;;;;;;5055272;28;19925;-77
2022/01/11 08:03:34;;;;;;;;;;;;;;;;;;5055571;28;19920;-78
2022/01/11 08:05:59;;;;;;;;;;;;;;;;;;5054706;28;20231;-78
2022/01/11 08:08:24;;;;;;;;;;;;;;;;;;5053877;28;20362;-77
2022/01/11 08:10:50;;;;;;;;;;;;;;;;;;5052410;28;19917;-78
2022/01/11 08:13:16;;;;;;;;;;;;;;;;;;5049834;28;20265;-78
2022/01/11 08:15:44;;;;;;;;;;;;;;;;;;5047271;28;19931;-78
2022/01/11 08:18:09;;;;;;;;;;;;;;;;;;5044549;28;19975;-78
2022/01/11 08:20:34;;;;;;;;;;;;;;;;;;5043881;28;19917;-78
2022/01/11 08:23:00;;;;;;;;;;;;;;;;;;5046389;28;19928;-78
2022/01/11 08:25:25;;;;;;;;;;;;;;;;;;5044581;28;19921;-78
2022/01/11 08:27:51;;;;;;;;;;;;;;;;;;5044227;28;19921;-78
2022/01/11 08:30:16;;;;;;;;;;;;;;;;;;5055769;28;19912;-79
2022/01/11 08:32:41;;;;;;;;;;;;;;;;;;5075334;28;20001;-78
2022/01/11 08:35:09;;;;;;;;;;;;;;;;;;5075328;28;19913;-78
2022/01/11 08:37:34;;;;;;;;;;;;;;;;;;5062011;28;19971;-79
2022/01/11 08:40:02;;;;;;;;;;;;;;;;;;5054222;28;20296;-78
2022/01/11 08:42:29;;;;;;;;;;;;;;;;;;5055298;28;19917;-79
2022/01/11 08:44:54;;;;;;;;;;;;;;;;;;5054026;28;19917;-79
2022/01/11 08:47:22;;;;;;;;;;;;;;;;;;5053158;28;19925;-78
2022/01/11 08:49:50;;;;;;;;;;;;;;;;;;5054657;28;19978;-78
2022/01/11 08:52:33;;;;;;;;;;;;;;;;;;5051116;28;19925;-79
2022/01/11 08:54:59;;;;;;;;;;;;;;;;;;5048246;28;19917;-79
2022/01/11 08:57:24;;;;;;;;;;;;;;;;;;5050701;28;19978;-79
2022/01/11 08:59:50;;;;;;;;;;;;;;;;;;5051212;28;19924;-79
2022/01/11 09:02:15;;;;;;;;;;;;;;;;;;5034059;28;19982;-78
2022/01/11 09:04:41;;;;;;;;;;;;;;;;;;5049626;28;20354;-79
2022/01/11 09:07:06;;;;;;;;;;;;;;;;;;5048143;28;19970;-84
2022/01/11 09:09:47;;;;;;;;;;;;;;;;;;5052627;28;19921;-80
2022/01/11 09:12:15;;;;;;;;;;;;;;;;;;5062228;28;19927;-79
2022/01/11 09:14:42;;;;;;;;;;;;;;;;;;5053264;28;20015;-79
2022/01/11 09:17:21;;;;;;;;;;;;;;;;;;5036137;28;19913;-79
2022/01/11 09:19:46;;;;;;;;;;;;;;;;;;5049517;28;19948;-79
2022/01/11 09:22:12;;;;;;;;;;;;;;;;;;5051619;28;20014;-80
2022/01/11 09:24:56;;;;;;;;;;;;;;;;;;5048111;28;19917;-79
2022/01/11 09:27:33;;;;;;;;;;;;;;;;;;5050652;28;20380;-81
2022/01/11 09:29:59;;;;;;;;;;;;;;;;;;5032861;28;19966;-87
2022/01/11 09:32:25;;;;;;;;;;;;;;;;;;5034615;28;20328;-85
2022/01/11 09:34:50;;;;;;;;;;;;;;;;;;5051286;28;19920;-88
2022/01/11 09:37:16;;;;;;;;;;;;;;;;;;5050861;28;19917;-86
2022/01/11 09:39:43;;;;;;;;;;;;;;;;;;5043430;28;19930;-83
2022/01/11 09:42:08;;;;;;;;;;;;;;;;;;5046450;28;19924;-86
2022/01/11 09:44:34;;;;;;;;;;;;;;;;;;5047775;28;19925;-88
2022/01/11 09:46:59;;;;;;;;;;;;;;;;;;5048096;28;19928;-87
2022/01/11 09:49:27;;;;;;;;;;;;;;;;;;5047943;28;20342;-86
2022/01/11 09:51:52;;;;;;;;;;;;;;;;;;5052943;28;19928;-87
2022/01/11 09:54:19;;;;;;;;;;;;;;;;;;5050083;28;19921;-87
2022/01/11 09:59:47;;;;;;;;;;;;;;;;;;5050942;28;19931;-89
2022/01/11 10:02:15;;;;;;;;;;;;;;;;;;5042365;28;20442;-87
2022/01/11 10:04:48;;;;;;;;;;;;;;;;;;5043487;28;19917;-85
2022/01/11 10:07:14;;;;;;;;;;;;;;;;;;5050531;28;20408;-85
2022/01/11 10:09:43;;;;;;;;;;;;;;;;;;5044571;28;20009;-83
2022/01/11 10:12:12;;;;;;;;;;;;;;;;;;5056953;28;19991;-88
2022/01/11 10:14:37;;;;;;;;;;;;;;;;;;5046737;28;19917;-89
2022/01/11 10:17:04;;;;;;;;;;;;;;;;;;5042396;28;19923;-85
2022/01/11 10:19:29;;;;;;;;;;;;;;;;;;5046719;28;19913;-86
2022/01/11 10:21:54;;;;;;;;;;;;;;;;;;5048378;28;20330;-86
2022/01/11 10:24:20;;;;;;;;;;;;;;;;;;5047643;28;19916;-83
2022/01/11 10:26:46;;;;;;;;;;;;;;;;;;5044987;28;20297;-84
2022/01/11 10:29:27;;;;;;;;;;;;;;;;;;5054332;28;19921;-85
2022/01/11 10:32:16;;;;;;;;;;;;;;;;;;5050874;28;19933;-86
2022/01/11 10:34:47;;;;;;;;;;;;;;;;;;5048593;28;19947;-83
2022/01/11 10:37:15;;;;;;;;;;;;;;;;;;5049060;28;19990;-87
2022/01/11 10:39:41;;;;;;;;;;;;;;;;;;5052970;28;19952;-85
2022/01/11 10:42:07;;;;;;;;;;;;;;;;;;5051580;28;20321;-85
2022/01/11 10:44:46;;;;;;;;;;;;;;;;;;5055242;28;19971;-88
2022/01/11 10:50:07;;;;;;;;;;;;;;;;;;5051016;28;20492;-87
2022/01/11 10:52:32;;;;;;;;;;;;;;;;;;5056924;28;19929;-78
2022/01/11 10:54:58;;;;;;;;;;;;;;;;;;5047584;28;19917;-77
2022/01/11 10:57:23;;;;;;;;;;;;;;;;;;5043872;28;19998;-79
2022/01/11 11:00:07;;;;;;;;;;;;;;;;;;5054824;28;20448;-82
2022/01/11 11:02:38;;;;;;;;;;;;;;;;;;5053620;28;19925;-83
2022/01/11 11:05:10;;;;;;;;;;;;;;;;;;5055627;28;19952;-82
2022/01/11 11:07:39;;;;;;;;;;;;;;;;;;5038245;28;19917;-80
2022/01/11 11:10:05;;;;;;;;;;;;;;;;;;5056055;28;20219;-87
2022/01/11 11:12:35;;;;;;;;;;;;;;;;;;5055914;28;19928;-91
2022/01/11 11:15:02;;;;;;;;;;;;;;;;;;5057866;28;19917;-89
2022/01/11 11:17:29;;;;;;;;;;;;;;;;;;5057939;28;19924;-89
2022/01/11 11:19:59;;;;;;;;;;;;;;;;;;5058662;28;19920;-88
2022/01/11 11:22:25;;;;;;;;;;;;;;;;;;5057846;28;19946;-80
2022/01/11 11:24:51;;;;;;;;;;;;;;;;;;5060171;28;19960;-85
2022/01/11 11:27:16;;;;;;;;;;;;;;;;;;5056846;28;20338;-82
2022/01/11 11:29:42;;;;;;;;;;;;;;;;;;5064652;28;19920;-92
2022/01/11 11:32:07;;;;;;;;;;;;;;;;;;5058505;28;19917;-88
2022/01/11 11:34:44;;;;;;;;;;;;;;;;;;5052478;28;19967;-90
2022/01/11 11:37:38;;;;;;;;;;;;;;;;;;;;;
2022/01/11 11:40:06;;;;;;;;;;;;;;;;;;5054928;28;20325;-92
2022/01/11 11:42:37;;;;;;;;;;;;;;;;;;5058259;28;19924;-91
2022/01/11 11:45:13;;;;;;;;;;;;;;;;;;5054900;28;19943;-84
2022/01/11 11:47:39;;;;;;;;;;;;;;;;;;5052215;28;20016;-84
2022/01/11 11:50:07;;;;;;;;;;;;;;;;;;5053944;28;20287;-84
2022/01/11 11:52:42;;;;;;;;;;;;;;;;;;5053896;28;19923;-84
2022/01/11 11:55:10;;;;;;;;;;;;;;;;;;5056676;28;21520;-86
2022/01/11 11:57:36;;;;;;;;;;;;;;;;;;5053912;28;19963;-82
2022/01/11 12:00:17;;;;;;;;;;;;;;;;;;5052900;28;19920;-84
2022/01/11 12:02:43;;;;;;;;;;;;;;;;;;5041961;28;19925;-82
2022/01/11 12:05:27;;;;;;;;;;;;;;;;;;5054696;28;20369;-82
2022/01/11 12:07:52;;;;;;;;;;;;;;;;;;5040441;28;19913;-84
2022/01/11 12:10:28;;;;;;;;;;;;;;;;;;5051721;28;20061;-83
2022/01/11 12:12:54;;;;;;;;;;;;;;;;;;5051865;28;19916;-84
2022/01/11 12:15:23;;;;;;;;;;;;;;;;;;5035511;28;20438;-84
2022/01/11 12:17:48;;;;;;;;;;;;;;;;;;5052447;28;19956;-80
2022/01/11 12:20:33;;;;;;;;;;;;;;;;;;5041341;28;19983;-81
2022/01/11 12:22:58;;;;;;;;;;;;;;;;;;5049278;28;19921;-83
2022/01/11 12:25:27;;;;;;;;;;;;;;;;;;5047064;28;19979;-84
2022/01/11 12:28:00;;;;;;;;;;;;;;;;;;5047096;28;19917;-85
2022/01/11 12:30:26;;;;;;;;;;;;;;;;;;5050814;28;19987;-84
2022/01/11 12:33:12;;;;;;;;;;;;;;;;;;5054947;28;19920;-78
2022/01/11 12:35:50;;;;;;;;;;;;;;;;;;5046639;28;19928;-78
2022/01/11 12:38:15;;;;;;;;;;;;;;;;;;5053224;28;19917;-81
2022/01/11 12:40:42;;;;;;;;;;;;;;;;;;5053997;28;20242;-79
2022/01/11 12:43:08;;;;;;;;;;;;;;;;;;5048175;28;19921;-83
2022/01/11 12:45:55;;;;;;;;;;;;;;;;;;5050335;28;20462;-81
2022/01/11 12:48:38;;;;;;;;;;;;;;;;;;5041749;28;19916;-84
2022/01/11 12:51:04;;;;;;;;;;;;;;;;;;5042665;28;19913;-84
2022/01/11 12:53:29;;;;;;;;;;;;;;;;;;5048812;28;20281;-87
2022/01/11 12:55:57;;;;;;;;;;;;;;;;;;5041627;28;20395;-86
2022/01/11 12:58:24;;;;;;;;;;;;;;;;;;5043578;28;20342;-83
2022/01/11 13:00:49;;;;;;;;;;;;;;;;;;5050065;28;19927;-85
2022/01/11 13:03:14;;;;;;;;;;;;;;;;;;5044160;28;19921;-84
2022/01/11 13:05:40;;;;;;;;;;;;;;;;;;5043344;28;19917;-86
2022/01/11 13:08:08;;;;;;;;;;;;;;;;;;5047205;28;19916;-84
2022/01/11 13:10:33;;;;;;;;;;;;;;;;;;5055248;28;20387;-83
2022/01/11 13:13:08;;;;;;;;;;;;;;;;;;5054196;28;19956;-85
2022/01/11 13:15:39;;;;;;;;;;;;;;;;;;5050236;28;19952;-85
2022/01/11 13:18:13;;;;;;;;;;;;;;;;;;5053101;28;19916;-86
2022/01/11 13:20:39;;;;;;;;;;;;;;;;;;5055033;28;19947;-86
2022/01/11 13:23:16;;;;;;;;;;;;;;;;;;5037509;28;20257;-85
2022/01/11 13:25:44;;;;;;;;;;;;;;;;;;5068055;28;19913;-83
2022/01/11 13:28:10;;;;;;;;;;;;;;;;;;5065575;28;19928;-83
2022/01/11 13:30:39;;;;;;;;;;;;;;;;;;5076370;28;19909;-76
2022/01/11 13:33:10;;;;;;;;;;;;;;;;;;5078473;28;19935;-78
2022/01/11 13:35:35;;;;;;;;;;;;;;;;;;5056726;28;19975;-87
2022/01/11 13:38:07;;;;;;;;;;;;;;;;;;5062243;28;19995;-86
2022/01/11 13:40:32;;;;;;;;;;;;;;;;;;5063599;28;19926;-86
2022/01/11 13:43:02;;;;;;;;;;;;;;;;;;5044553;28;19979;-86
2022/01/11 13:45:37;;;;;;;;;;;;;;;;;;5045808;28;19927;-87
2022/01/11 13:48:08;;;;;;;;;;;;;;;;;;5054664;28;20482;-86
2022/01/11 13:50:59;;;;;;;;;;;;;;;;;;5055259;28;19924;-83
2022/01/11 13:53:34;;;;;;;;;;;;;;;;;;5018717;28;19913;-86
2022/01/11 13:56:16;;;;;;;;;;;;;;;;;;5047811;28;19921;-82
2022/01/11 13:58:53;;;;;;;;;;;;;;;;;;5055178;28;19979;-81
2022/01/11 14:01:21;;;;;;;;;;;;;;;;;;5053692;28;20349;-82
2022/01/11 14:04:27;;;;;;;;;;;;;;;;;;5066249;28;19923;-83
2022/01/11 14:06:55;;;;;;;;;;;;;;;;;;5056723;28;19917;-86
2022/01/11 14:12:47;;;;;;;;;;;;;;;;;;5032450;28;20234;-83
2022/01/11 14:15:13;;;;;;;;;;;;;;;;;;5057155;28;19967;-83
2022/01/11 14:17:42;;;;;;;;;;;;;;;;;;5056452;28;19960;-83
2022/01/11 14:20:08;;;;;;;;;;;;;;;;;;5040895;28;20269;-83
2022/01/11 14:22:35;;;;;;;;;;;;;;;;;;5044416;28;20322;-84
2022/01/11 14:25:00;;;;;;;;;;;;;;;;;;5051982;28;19952;-84
2022/01/11 14:27:26;;;;;;;;;;;;;;;;;;5056229;28;19916;-82
2022/01/11 14:30:09;;;;;;;;;;;;;;;;;;5056753;28;20357;-83
2022/01/11 14:32:46;;;;;;;;;;;;;;;;;;5047395;28;20377;-85
2022/01/11 14:35:12;;;;;;;;;;;;;;;;;;5046442;28;19921;-82
2022/01/11 14:37:39;;;;;;;;;;;;;;;;;;5057613;28;20322;-83
2022/01/11 14:40:16;;;;;;;;;;;;;;;;;;5055223;28;19913;-82
2022/01/11 14:42:41;;;;;;;;;;;;;;;;;;5036273;28;19932;-82
2022/01/11 14:45:22;;;;;;;;;;;;;;;;;;5051290;28;20254;-84
2022/01/11 14:47:53;;;;;;;;;;;;;;;;;;5056770;28;19924;-85
2022/01/11 14:50:26;;;;;;;;;;;;;;;;;;5055650;28;19927;-83
2022/01/11 14:52:51;;;;;;;;;;;;;;;;;;5054405;28;19917;-83
2022/01/11 14:55:18;;;;;;;;;;;;;;;;;;5055600;28;19927;-82
2022/01/11 14:57:44;;;;;;;;;;;;;;;;;;5037773;28;20004;-83
2022/01/11 15:00:25;;;;;;;;;;;;;;;;;;5051673;28;20312;-81
2022/01/11 15:02:51;;;;;;;;;;;;;;;;;;5054471;28;19921;-81
2022/01/11 15:05:26;;;;;;;;;;;;;;;;;;5055731;28;19917;-81
2022/01/11 15:07:52;;;;;;;;;;;;;;;;;;5054793;28;19923;-80
2022/01/11 15:10:21;;;;;;;;;;;;;;;;;;5054524;28;19913;-80
2022/01/11 15:12:47;;;;;;;;;;;;;;;;;;5051951;28;19956;-80
2022/01/11 15:15:12;;;;;;;;;;;;;;;;;;5050015;28;19995;-80
2022/01/11 15:17:41;;;;;;;;;;;;;;;;;;5055483;28;20383;-81
2022/01/11 15:20:06;;;;;;;;;;;;;;;;;;5056454;28;20257;-81
2022/01/11 15:22:32;;;;;;;;;;;;;;;;;;5053415;28;19924;-80
2022/01/11 15:24:57;;;;;;;;;;;;;;;;;;5056356;28;19916;-81
2022/01/11 15:27:22;;;;;;;;;;;;;;;;;;5054719;28;19967;-79
2022/01/11 15:29:49;;;;;;;;;;;;;;;;;;5049568;28;20019;-81
2022/01/11 15:32:15;;;;;;;;;;;;;;;;;;5048956;28;20357;-81
2022/01/11 15:34:41;;;;;;;;;;;;;;;;;;5054521;28;19917;-83
2022/01/11 15:37:06;;;;;;;;;;;;;;;;;;5055111;28;19912;-80
2022/01/11 15:39:34;;;;;;;;;;;;;;;;;;5033009;28;20239;-81
2022/01/11 15:41:59;;;;;;;;;;;;;;;;;;5047543;28;20371;-82
2022/01/11 15:44:29;;;;;;;;;;;;;;;;;;5043247;28;20007;-79
2022/01/11 15:46:54;;;;;;;;;;;;;;;;;;5050397;28;19917;-80
2022/01/11 15:49:20;;;;;;;;;;;;;;;;;;5051355;28;20346;-80
2022/01/11 15:51:46;;;;;;;;;;;;;;;;;;5055001;28;20334;-81
2022/01/11 15:54:14;;;;;;;;;;;;;;;;;;5056140;28;19917;-81
2022/01/11 15:56:40;;;;;;;;;;;;;;;;;;5039574;28;20070;-80
2022/01/11 15:59:05;;;;;;;;;;;;;;;;;;5050875;28;20413;-84
2022/01/11 16:01:30;;;;;;;;;;;;;;;;;;5053856;28;20357;-81
2022/01/11 16:03:58;;;;;;;;;;;;;;;;;;5054314;28;20323;-80
2022/01/11 16:06:23;;;;;;;;;;;;;;;;;;5055222;28;19917;-80
2022/01/11 16:08:51;;;;;;;;;;;;;;;;;;5055048;28;20382;-79
2022/01/11 16:11:16;;;;;;;;;;;;;;;;;;5050344;28;19917;-80
2022/01/11 16:13:41;;;;;;;;;;;;;;;;;;5053874;28;20261;-79
2022/01/11 16:16:07;;;;;;;;;;;;;;;;;;5053905;28;19924;-80
2022/01/11 16:18:32;;;;;;;;;;;;;;;;;;5037426;28;20047;-81
2022/01/11 16:20:57;;;;;;;;;;;;;;;;;;5055136;28;19916;-80
2022/01/11 16:23:23;;;;;;;;;;;;;;;;;;5055458;28;19925;-80
2022/01/11 16:25:49;;;;;;;;;;;;;;;;;;5034901;28;19921;-81
2022/01/11 16:28:14;;;;;;;;;;;;;;;;;;5050078;28;19959;-80
2022/01/11 16:30:40;;;;;;;;;;;;;;;;;;5052732;28;19924;-82
2022/01/11 16:33:07;;;;;;;;;;;;;;;;;;5052298;28;19978;-82
2022/01/11 16:35:33;;;;;;;;;;;;;;;;;;5044751;28;19925;-85
2022/01/11 16:38:00;;;;;;;;;;;;;;;;;;5036783;28;19929;-80
2022/01/11 16:43:00;;;;;;;;;;;;;;;;;;5043557;28;19921;-79
2022/01/11 16:45:25;;;;;;;;;;;;;;;;;;5054383;28;20380;-80
2022/01/11 16:47:50;;;;;;;;;;;;;;;;;;5053806;28;19913;-80
2022/01/11 16:50:16;;;;;;;;;;;;;;;;;;5039056;28;19917;-81
2022/01/11 16:52:41;;;;;;;;;;;;;;;;;;5055157;28;19917;-80
2022/01/11 16:55:06;;;;;;;;;;;;;;;;;;5047262;28;19917;-80
2022/01/11 16:57:32;;;;;;;;;;;;;;;;;;5048633;28;20029;-80
2022/01/11 16:59:57;;;;;;;;;;;;;;;;;;5054400;28;19927;-80
2022/01/11 17:02:25;;;;;;;;;;;;;;;;;;5053490;28;19933;-81
2022/01/11 17:04:51;;;;;;;;;;;;;;;;;;5054181;28;19917;-80